sensor_id;sensor_type;location;lat;lon;timestamp;pressure;altitude;pressure_sealevel;temperature;humidity
72438;BME280;60444;43.534;-5.674;2023-02-20T00:01:29;102729.31;;;12.76;100.00
72438;BME280;60444;43.534;-5.674;2023-02-20T00:03:55;102696.25;;;12.62;100.00
72438;BME280;60444;43.534;-5.674;2023-02-20T00:06:21;102730.97;;;12.81;100.00
72438;BME280;60444;43.534;-5.674;2023-02-20T00:08:47;102713.94;;;12.75;100.00
72438;BME280;60444;43.534;-5.674;2023-02-20T00:11:12;102704.16;;;12.69;100.00
72438;BME280;60444;43.534;-5.674;2023-02-20T00:13:38;102722.91;;;12.78;100.00
72438;BME280;60444;43.534;-5.674;2023-02-20T00:16:08;102720.22;;;12.77;100.00
72438;BME280;60444;43.534;-5.674;2023-02-20T00:18:34;102719.44;;;12.73;100.00
72438;BME280;60444;43.534;-5.674;2023-02-20T00:20:59;102716.72;;;12.73;100.00
72438;BME280;60444;43.534;-5.674;2023-02-20T00:23:25;102704.19;;;12.68;100.00
72438;BME280;60444;43.534;-5.674;2023-02-20T00:25:53;102704.38;;;12.62;100.00
72438;BME280;60444;43.534;-5.674;2023-02-20T00:28:19;102707.72;;;12.71;100.00
72438;BME280;60444;43.534;-5.674;2023-02-20T00:30:44;102696.13;;;12.65;100.00
72438;BME280;60444;43.534;-5.674;2023-02-20T00:33:10;102714.84;;;12.75;100.00
72438;BME280;60444;43.534;-5.674;2023-02-20T00:35:35;102702.38;;;12.68;100.00
72438;BME280;60444;43.534;-5.674;2023-02-20T00:38:03;102715.75;;;12.76;100.00
72438;BME280;60444;43.534;-5.674;2023-02-20T00:40:28;102687.84;;;12.69;100.00
72438;BME280;60444;43.534;-5.674;2023-02-20T00:42:54;102682.47;;;12.68;100.00
72438;BME280;60444;43.534;-5.674;2023-02-20T00:45:20;102672.66;;;12.64;100.00
72438;BME280;60444;43.534;-5.674;2023-02-20T00:47:45;102676.28;;;12.63;100.00
72438;BME280;60444;43.534;-5.674;2023-02-20T00:50:14;102701.41;;;12.71;100.00
72438;BME280;60444;43.534;-5.674;2023-02-20T00:52:41;102706.75;;;12.74;100.00
72438;BME280;60444;43.534;-5.674;2023-02-20T00:55:07;102694.13;;;12.71;100.00
72438;BME280;60444;43.534;-5.674;2023-02-20T00:57:32;102686.94;;;12.70;100.00
72438;BME280;60444;43.534;-5.674;2023-02-20T00:59:58;102690.47;;;12.74;100.00
72438;BME280;60444;43.534;-5.674;2023-02-20T01:02:23;102676.16;;;12.67;100.00
72438;BME280;60444;43.534;-5.674;2023-02-20T01:04:49;102666.22;;;12.66;100.00
72438;BME280;60444;43.534;-5.674;2023-02-20T01:07:15;102652.75;;;12.63;100.00
72438;BME280;60444;43.534;-5.674;2023-02-20T01:09:41;102666.31;;;12.63;100.00
72438;BME280;60444;43.534;-5.674;2023-02-20T01:12:07;102681.41;;;12.73;100.00
72438;BME280;60444;43.534;-5.674;2023-02-20T01:14:32;102689.44;;;12.78;100.00
72438;BME280;60444;43.534;-5.674;2023-02-20T01:16:58;102691.25;;;12.77;100.00
72438;BME280;60444;43.534;-5.674;2023-02-20T01:19:23;102674.16;;;12.74;100.00
72438;BME280;60444;43.534;-5.674;2023-02-20T01:21:49;102675.72;;;12.82;100.00
72438;BME280;60444;43.534;-5.674;2023-02-20T01:24:15;102656.09;;;12.73;100.00
72438;BME280;60444;43.534;-5.674;2023-02-20T01:26:42;102647.22;;;12.66;100.00
72438;BME280;60444;43.534;-5.674;2023-02-20T01:29:08;102639.81;;;12.71;100.00
72438;BME280;60444;43.534;-5.674;2023-02-20T01:31:33;102647.97;;;12.73;100.00
72438;BME280;60444;43.534;-5.674;2023-02-20T01:33:59;102642.53;;;12.71;100.00
72438;BME280;60444;43.534;-5.674;2023-02-20T01:36:24;102657.66;;;12.81;100.00
72438;BME280;60444;43.534;-5.674;2023-02-20T01:38:53;102664.00;;;12.80;100.00
72438;BME280;60444;43.534;-5.674;2023-02-20T01:41:18;102642.53;;;12.73;100.00
72438;BME280;60444;43.534;-5.674;2023-02-20T01:43:44;102663.03;;;12.83;100.00
72438;BME280;60444;43.534;-5.674;2023-02-20T01:48:52;102651.31;;;12.81;100.00
72438;BME280;60444;43.534;-5.674;2023-02-20T01:51:19;102642.44;;;12.76;100.00
72438;BME280;60444;43.534;-5.674;2023-02-20T01:53:45;102652.44;;;12.74;100.00
72438;BME280;60444;43.534;-5.674;2023-02-20T01:56:11;102636.16;;;12.74;100.00
72438;BME280;60444;43.534;-5.674;2023-02-20T01:58:41;102635.34;;;12.70;100.00
72438;BME280;60444;43.534;-5.674;2023-02-20T02:01:11;102644.97;;;12.82;100.00
72438;BME280;60444;43.534;-5.674;2023-02-20T02:03:40;102638.72;;;12.78;100.00
72438;BME280;60444;43.534;-5.674;2023-02-20T02:06:09;102638.72;;;12.78;100.00
72438;BME280;60444;43.534;-5.674;2023-02-20T02:08:37;102626.34;;;12.68;100.00
72438;BME280;60444;43.534;-5.674;2023-02-20T02:11:12;102617.50;;;12.62;100.00
72438;BME280;60444;43.534;-5.674;2023-02-20T02:13:41;102632.47;;;12.75;100.00
72438;BME280;60444;43.534;-5.674;2023-02-20T02:16:33;102629.75;;;12.76;100.00
72438;BME280;60444;43.534;-5.674;2023-02-20T02:39:50;102610.75;;;12.75;100.00
72438;BME280;60444;43.534;-5.674;2023-02-20T02:42:51;102614.28;;;12.78;100.00
72438;BME280;60444;43.534;-5.674;2023-02-20T02:50:33;102588.38;;;12.67;100.00
72438;BME280;60444;43.534;-5.674;2023-02-20T02:53:02;102579.44;;;12.63;100.00
72438;BME280;60444;43.534;-5.674;2023-02-20T02:55:29;102560.75;;;12.52;100.00
72438;BME280;60444;43.534;-5.674;2023-02-20T02:57:56;102587.50;;;12.66;100.00
72438;BME280;60444;43.534;-5.674;2023-02-20T03:00:37;102592.97;;;12.65;100.00
72438;BME280;60444;43.534;-5.674;2023-02-20T03:03:20;102589.41;;;12.63;100.00
72438;BME280;60444;43.534;-5.674;2023-02-20T03:06:19;102585.78;;;12.62;100.00
72438;BME280;60444;43.534;-5.674;2023-02-20T03:08:50;102579.63;;;12.57;100.00
72438;BME280;60444;43.534;-5.674;2023-02-20T03:11:23;102586.75;;;12.61;100.00
72438;BME280;60444;43.534;-5.674;2023-02-20T03:19:36;102561.63;;;12.55;100.00
72438;BME280;60444;43.534;-5.674;2023-02-20T03:22:08;102559.91;;;12.50;100.00
72438;BME280;60444;43.534;-5.674;2023-02-20T03:24:36;102576.78;;;12.62;100.00
72438;BME280;60444;43.534;-5.674;2023-02-20T03:27:57;102575.88;;;12.61;100.00
72438;BME280;60444;43.534;-5.674;2023-02-20T03:30:30;102554.34;;;12.55;100.00
72438;BME280;60444;43.534;-5.674;2023-02-20T03:33:12;102564.13;;;12.61;100.00
72438;BME280;60444;43.534;-5.674;2023-02-20T03:35:59;102558.84;;;12.56;100.00
72438;BME280;60444;43.534;-5.674;2023-02-20T03:38:47;102559.53;;;12.63;100.00
72438;BME280;60444;43.534;-5.674;2023-02-20T03:41:34;102566.78;;;12.62;100.00
72438;BME280;60444;43.534;-5.674;2023-02-20T03:44:21;102545.34;;;12.53;100.00
72438;BME280;60444;43.534;-5.674;2023-02-20T03:46:49;102551.50;;;12.60;100.00
72438;BME280;60444;43.534;-5.674;2023-02-20T03:49:19;102545.28;;;12.56;100.00
72438;BME280;60444;43.534;-5.674;2023-02-20T03:51:46;102548.84;;;12.58;100.00
72438;BME280;60444;43.534;-5.674;2023-02-20T03:54:12;102538.06;;;12.55;100.00
72438;BME280;60444;43.534;-5.674;2023-02-20T03:56:41;102535.47;;;12.50;100.00
72438;BME280;60444;43.534;-5.674;2023-02-20T03:59:15;102537.97;;;12.58;100.00
72438;BME280;60444;43.534;-5.674;2023-02-20T04:01:43;102513.81;;;12.49;100.00
72438;BME280;60444;43.534;-5.674;2023-02-20T04:04:20;102524.53;;;12.53;100.00
72438;BME280;60444;43.534;-5.674;2023-02-20T04:06:49;102526.31;;;12.55;100.00
72438;BME280;60444;43.534;-5.674;2023-02-20T04:09:19;102503.88;;;12.48;100.00
72438;BME280;60444;43.534;-5.674;2023-02-20T04:11:57;102513.81;;;12.49;100.00
72438;BME280;60444;43.534;-5.674;2023-02-20T04:14:25;102532.50;;;12.60;100.00
72438;BME280;60444;43.534;-5.674;2023-02-20T04:16:56;102542.34;;;12.64;100.00
72438;BME280;60444;43.534;-5.674;2023-02-20T04:19:23;102531.44;;;12.65;100.00
72438;BME280;60444;43.534;-5.674;2023-02-20T04:21:51;102495.91;;;12.43;100.00
72438;BME280;60444;43.534;-5.674;2023-02-20T04:24:28;102504.63;;;12.55;100.00
72438;BME280;60444;43.534;-5.674;2023-02-20T04:26:56;102488.59;;;12.45;100.00
72438;BME280;60444;43.534;-5.674;2023-02-20T04:29:22;102494.63;;;12.55;100.00
72438;BME280;60444;43.534;-5.674;2023-02-20T04:31:47;102479.56;;;12.45;100.00
72438;BME280;60444;43.534;-5.674;2023-02-20T04:34:13;102502.69;;;12.58;100.00
72438;BME280;60444;43.534;-5.674;2023-02-20T04:36:38;102506.47;;;12.52;100.00
72438;BME280;60444;43.534;-5.674;2023-02-20T04:39:04;102511.84;;;12.54;100.00
72438;BME280;60444;43.534;-5.674;2023-02-20T04:41:29;102501.16;;;12.48;100.00
72438;BME280;60444;43.534;-5.674;2023-02-20T04:43:55;102508.19;;;12.55;100.00
72438;BME280;60444;43.534;-5.674;2023-02-20T04:46:40;102486.09;;;12.38;100.00
72438;BME280;60444;43.534;-5.674;2023-02-20T04:49:06;102500.31;;;12.46;100.00
72438;BME280;60444;43.534;-5.674;2023-02-20T04:51:31;102506.59;;;12.48;100.00
72438;BME280;60444;43.534;-5.674;2023-02-20T04:53:57;102481.66;;;12.35;100.00
72438;BME280;60444;43.534;-5.674;2023-02-20T04:56:23;102506.66;;;12.46;100.00
72438;BME280;60444;43.534;-5.674;2023-02-20T04:58:48;102508.47;;;12.46;100.00
72438;BME280;60444;43.534;-5.674;2023-02-20T05:01:15;102499.41;;;12.47;100.00
72438;BME280;60444;43.534;-5.674;2023-02-20T05:03:40;102495.91;;;12.43;100.00
72438;BME280;60444;43.534;-5.674;2023-02-20T05:06:06;102502.16;;;12.45;100.00
72438;BME280;60444;43.534;-5.674;2023-02-20T05:08:31;102494.09;;;12.42;100.00
72438;BME280;60444;43.534;-5.674;2023-02-20T05:10:57;102504.00;;;12.45;100.00
72438;BME280;60444;43.534;-5.674;2023-02-20T05:13:22;102488.78;;;12.39;100.00
72438;BME280;60444;43.534;-5.674;2023-02-20T05:15:48;102489.63;;;12.41;100.00
72438;BME280;60444;43.534;-5.674;2023-02-20T05:18:23;102480.75;;;12.35;100.00
72438;BME280;60444;43.534;-5.674;2023-02-20T05:20:48;102480.69;;;12.38;100.00
72438;BME280;60444;43.534;-5.674;2023-02-20T05:23:32;102485.91;;;12.44;100.00
72438;BME280;60444;43.534;-5.674;2023-02-20T05:25:57;102480.59;;;12.41;100.00
72438;BME280;60444;43.534;-5.674;2023-02-20T05:28:23;102482.41;;;12.40;100.00
72438;BME280;60444;43.534;-5.674;2023-02-20T05:30:48;102463.50;;;12.37;100.00
72438;BME280;60444;43.534;-5.674;2023-02-20T05:33:14;102495.53;;;12.56;100.00
72438;BME280;60444;43.534;-5.674;2023-02-20T05:35:39;102496.47;;;12.55;100.00
72438;BME280;60444;43.534;-5.674;2023-02-20T05:38:06;102474.25;;;12.40;100.00
72438;BME280;60444;43.534;-5.674;2023-02-20T05:40:31;102488.50;;;12.48;100.00
72438;BME280;60444;43.534;-5.674;2023-02-20T05:42:57;102487.50;;;12.51;100.00
72438;BME280;60444;43.534;-5.674;2023-02-20T05:45:22;102484.13;;;12.43;100.00
72438;BME280;60444;43.534;-5.674;2023-02-20T05:47:48;102500.38;;;12.44;100.00
72438;BME280;60444;43.534;-5.674;2023-02-20T05:50:13;102479.84;;;12.36;100.00
72438;BME280;60444;43.534;-5.674;2023-02-20T05:52:40;102496.69;;;12.47;100.00
72438;BME280;60444;43.534;-5.674;2023-02-20T05:55:05;102517.34;;;12.51;100.00
72438;BME280;60444;43.534;-5.674;2023-02-20T05:57:31;102490.63;;;12.37;100.00
72438;BME280;60444;43.534;-5.674;2023-02-20T05:59:57;102499.41;;;12.47;100.00
72438;BME280;60444;43.534;-5.674;2023-02-20T06:02:22;102484.25;;;12.40;100.00
72438;BME280;60444;43.534;-5.674;2023-02-20T06:04:47;102495.78;;;12.46;100.00
72438;BME280;60444;43.534;-5.674;2023-02-20T06:07:13;102484.09;;;12.44;100.00
72438;BME280;60444;43.534;-5.674;2023-02-20T06:09:42;102464.41;;;12.38;100.00
72438;BME280;60444;43.534;-5.674;2023-02-20T06:12:08;102476.91;;;12.43;100.00
72438;BME280;60444;43.534;-5.674;2023-02-20T06:14:34;102477.81;;;12.42;100.00
72438;BME280;60444;43.534;-5.674;2023-02-20T06:16:59;102473.34;;;12.41;100.00
72438;BME280;60444;43.534;-5.674;2023-02-20T06:19:25;102474.19;;;12.43;100.00
72438;BME280;60444;43.534;-5.674;2023-02-20T06:21:51;102468.78;;;12.42;100.00
72438;BME280;60444;43.534;-5.674;2023-02-20T06:24:18;102466.88;;;12.45;100.00
72438;BME280;60444;43.534;-5.674;2023-02-20T06:26:44;102471.50;;;12.42;100.00
72438;BME280;60444;43.534;-5.674;2023-02-20T06:29:10;102448.25;;;12.33;100.00
72438;BME280;60444;43.534;-5.674;2023-02-20T06:31:36;102457.19;;;12.37;100.00
72438;BME280;60444;43.534;-5.674;2023-02-20T06:34:02;102471.38;;;12.46;100.00
72438;BME280;60444;43.534;-5.674;2023-02-20T06:36:31;102459.63;;;12.46;100.00
72438;BME280;60444;43.534;-5.674;2023-02-20T06:38:58;102465.16;;;12.43;100.00
72438;BME280;60444;43.534;-5.674;2023-02-20T06:41:24;102464.13;;;12.47;100.00
72438;BME280;60444;43.534;-5.674;2023-02-20T06:43:50;102448.91;;;12.41;100.00
72438;BME280;60444;43.534;-5.674;2023-02-20T06:46:15;102439.31;;;12.30;100.00
72438;BME280;60444;43.534;-5.674;2023-02-20T06:48:48;102462.44;;;12.43;100.00
72438;BME280;60444;43.534;-5.674;2023-02-20T06:51:22;102439.31;;;12.30;100.00
72438;BME280;60444;43.534;-5.674;2023-02-20T06:53:48;102457.09;;;12.40;100.00
72438;BME280;60444;43.534;-5.674;2023-02-20T06:56:22;102448.19;;;12.35;100.00
72438;BME280;60444;43.534;-5.674;2023-02-20T06:58:49;102467.81;;;12.44;100.00
72438;BME280;60444;43.534;-5.674;2023-02-20T07:01:16;102463.34;;;12.43;100.00
72438;BME280;60444;43.534;-5.674;2023-02-20T07:03:42;102468.88;;;12.39;100.00
72438;BME280;60444;43.534;-5.674;2023-02-20T07:06:14;102462.53;;;12.40;100.00
72438;BME280;60444;43.534;-5.674;2023-02-20T07:08:39;102452.81;;;12.31;100.00
72438;BME280;60444;43.534;-5.674;2023-02-20T07:11:05;102448.47;;;12.26;100.00
72438;BME280;60444;43.534;-5.674;2023-02-20T07:13:31;102452.91;;;12.28;100.00
72438;BME280;60444;43.534;-5.674;2023-02-20T07:15:56;102440.59;;;12.18;100.00
72438;BME280;60444;43.534;-5.674;2023-02-20T07:18:22;102469.03;;;12.34;100.00
72438;BME280;60444;43.534;-5.674;2023-02-20T07:20:51;102443.19;;;12.21;100.00
72438;BME280;60444;43.534;-5.674;2023-02-20T07:23:16;102445.75;;;12.26;100.00
72438;BME280;60444;43.534;-5.674;2023-02-20T07:25:42;102447.59;;;12.25;100.00
72438;BME280;60444;43.534;-5.674;2023-02-20T07:28:08;102450.16;;;12.30;100.00
72438;BME280;60444;43.534;-5.674;2023-02-20T07:30:33;102441.38;;;12.22;100.00
72438;BME280;60444;43.534;-5.674;2023-02-20T07:32:59;102457.44;;;12.28;100.00
72438;BME280;60444;43.534;-5.674;2023-02-20T07:35:25;102447.50;;;12.28;100.00
72438;BME280;60444;43.534;-5.674;2023-02-20T07:37:51;102459.94;;;12.35;100.00
72438;BME280;60444;43.534;-5.674;2023-02-20T07:40:16;102434.03;;;12.25;100.00
72438;BME280;60444;43.534;-5.674;2023-02-20T07:42:42;102446.59;;;12.28;100.00
72438;BME280;60444;43.534;-5.674;2023-02-20T07:45:08;102465.38;;;12.35;100.00
72438;BME280;60444;43.534;-5.674;2023-02-20T07:47:34;102466.25;;;12.36;100.00
72438;BME280;60444;43.534;-5.674;2023-02-20T07:50:00;102461.81;;;12.33;100.00
72438;BME280;60444;43.534;-5.674;2023-02-20T07:52:26;102466.97;;;12.42;100.00
72438;BME280;60444;43.534;-5.674;2023-02-20T07:54:51;102431.31;;;12.25;100.00
72438;BME280;60444;43.534;-5.674;2023-02-20T07:57:17;102446.38;;;12.35;100.00
72438;BME280;60444;43.534;-5.674;2023-02-20T07:59:42;102425.00;;;12.25;100.00
72438;BME280;60444;43.534;-5.674;2023-02-20T08:02:08;102450.88;;;12.36;100.00
72438;BME280;60444;43.534;-5.674;2023-02-20T08:04:33;102443.81;;;12.31;100.00
72438;BME280;60444;43.534;-5.674;2023-02-20T08:06:59;102433.09;;;12.26;100.00
72438;BME280;60444;43.534;-5.674;2023-02-20T08:09:24;102465.09;;;12.44;100.00
72438;BME280;60444;43.534;-5.674;2023-02-20T08:11:50;102439.34;;;12.28;100.00
72438;BME280;60444;43.534;-5.674;2023-02-20T08:14:15;102447.41;;;12.31;100.00
72438;BME280;60444;43.534;-5.674;2023-02-20T08:16:41;102441.00;;;12.34;100.00
72438;BME280;60444;43.534;-5.674;2023-02-20T08:19:06;102458.81;;;12.42;100.00
72438;BME280;60444;43.534;-5.674;2023-02-20T08:21:32;102451.41;;;12.47;100.00
72438;BME280;60444;43.534;-5.674;2023-02-20T08:23:57;102435.47;;;12.37;100.00
72438;BME280;60444;43.534;-5.674;2023-02-20T08:26:23;102453.34;;;12.44;100.00
72438;BME280;60444;43.534;-5.674;2023-02-20T08:28:49;102459.50;;;12.50;100.00
72438;BME280;60444;43.534;-5.674;2023-02-20T08:31:15;102465.75;;;12.52;100.00
72438;BME280;60444;43.534;-5.674;2023-02-20T08:33:41;102454.13;;;12.49;100.00
72438;BME280;60444;43.534;-5.674;2023-02-20T08:36:06;102468.16;;;12.63;100.00
72438;BME280;60444;43.534;-5.674;2023-02-20T08:38:34;102466.50;;;12.58;100.00
72438;BME280;60444;43.534;-5.674;2023-02-20T08:41:05;102447.56;;;12.56;100.00
72438;BME280;60444;43.534;-5.674;2023-02-20T08:43:35;102459.00;;;12.66;100.00
72438;BME280;60444;43.534;-5.674;2023-02-20T08:46:01;102438.41;;;12.59;100.00
72438;BME280;60444;43.534;-5.674;2023-02-20T08:48:27;102455.19;;;12.73;100.00
72438;BME280;60444;43.534;-5.674;2023-02-20T08:50:53;102437.28;;;12.66;100.00
72438;BME280;60444;43.534;-5.674;2023-02-20T08:53:19;102445.97;;;12.77;100.00
72438;BME280;60444;43.534;-5.674;2023-02-20T08:55:45;102447.56;;;12.84;100.00
72438;BME280;60444;43.534;-5.674;2023-02-20T08:58:10;102432.41;;;12.77;100.00
72438;BME280;60444;43.534;-5.674;2023-02-20T09:00:36;102440.19;;;12.87;100.00
72438;BME280;60444;43.534;-5.674;2023-02-20T09:03:02;102443.75;;;12.89;100.00
72438;BME280;60444;43.534;-5.674;2023-02-20T09:05:32;102434.63;;;12.92;100.00
72438;BME280;60444;43.534;-5.674;2023-02-20T09:07:58;102419.31;;;12.89;100.00
72438;BME280;60444;43.534;-5.674;2023-02-20T09:10:23;102419.59;;;12.80;100.00
72438;BME280;60444;43.534;-5.674;2023-02-20T09:12:49;102435.31;;;12.98;100.00
72438;BME280;60444;43.534;-5.674;2023-02-20T09:15:15;102422.66;;;12.97;100.00
72438;BME280;60444;43.534;-5.674;2023-02-20T09:17:43;102420.59;;;13.07;100.00
72438;BME280;60444;43.534;-5.674;2023-02-20T09:20:09;102419.50;;;13.12;100.00
72438;BME280;60444;43.534;-5.674;2023-02-20T09:22:40;102420.28;;;13.16;100.00
72438;BME280;60444;43.534;-5.674;2023-02-20T09:25:06;102398.94;;;13.04;100.00
72438;BME280;60444;43.534;-5.674;2023-02-20T09:27:32;102411.09;;;13.18;100.00
72438;BME280;60444;43.534;-5.674;2023-02-20T09:29:59;102414.72;;;13.19;100.00
72438;BME280;60444;43.534;-5.674;2023-02-20T09:32:24;102398.56;;;13.14;100.00
72438;BME280;60444;43.534;-5.674;2023-02-20T09:34:49;102411.81;;;13.25;100.00
72438;BME280;60444;43.534;-5.674;2023-02-20T09:37:15;102392.72;;;13.26;100.00
72438;BME280;60444;43.534;-5.674;2023-02-20T09:39:40;102396.31;;;13.27;100.00
72438;BME280;60444;43.534;-5.674;2023-02-20T09:42:33;102388.22;;;13.25;100.00
72438;BME280;60444;43.534;-5.674;2023-02-20T09:45:08;102400.50;;;13.37;100.00
72438;BME280;60444;43.534;-5.674;2023-02-20T09:55:50;102404.56;;;13.50;100.00
72438;BME280;60444;43.534;-5.674;2023-02-20T09:58:25;102410.09;;;13.47;100.00
72438;BME280;60444;43.534;-5.674;2023-02-20T10:00:52;102392.34;;;13.37;100.00
72438;BME280;60444;43.534;-5.674;2023-02-20T10:06:52;102395.97;;;13.36;100.00
72438;BME280;60444;43.534;-5.674;2023-02-20T10:09:19;102414.69;;;13.45;100.00
72438;BME280;60444;43.534;-5.674;2023-02-20T10:11:52;102407.50;;;13.44;100.00
72438;BME280;60444;43.534;-5.674;2023-02-20T10:17:05;102393.00;;;13.43;100.00
72438;BME280;60444;43.534;-5.674;2023-02-20T10:22:35;102401.66;;;13.54;100.00
72438;BME280;60444;43.534;-5.674;2023-02-20T10:25:17;102399.91;;;13.53;100.00
72438;BME280;60444;43.534;-5.674;2023-02-20T10:30:17;102364.97;;;13.43;100.00
72438;BME280;60444;43.534;-5.674;2023-02-20T10:32:45;102383.66;;;13.52;100.00
72438;BME280;60444;43.534;-5.674;2023-02-20T10:35:19;102361.16;;;13.47;100.00
72438;BME280;60444;43.534;-5.674;2023-02-20T10:37:53;102375.31;;;13.57;100.00
72438;BME280;60444;43.534;-5.674;2023-02-20T10:43:47;102367.00;;;13.61;100.00
72438;BME280;60444;43.534;-5.674;2023-02-20T10:46:39;102356.94;;;13.63;100.00
72438;BME280;60444;43.534;-5.674;2023-02-20T10:49:18;102347.78;;;13.66;100.00
72438;BME280;60444;43.534;-5.674;2023-02-20T10:51:49;102351.06;;;13.75;100.00
72438;BME280;60444;43.534;-5.674;2023-02-20T10:54:17;102350.81;;;13.81;100.00
72438;BME280;60444;43.534;-5.674;2023-02-20T10:57:25;102346.94;;;13.88;100.00
72438;BME280;60444;43.534;-5.674;2023-02-20T11:00:04;102322.13;;;13.73;100.00
72438;BME280;60444;43.534;-5.674;2023-02-20T11:02:36;102327.91;;;13.88;100.00
72438;BME280;60444;43.534;-5.674;2023-02-20T11:05:25;102327.66;;;13.94;100.00
72438;BME280;60444;43.534;-5.674;2023-02-20T11:07:52;102325.88;;;13.93;100.00
72438;BME280;60444;43.534;-5.674;2023-02-20T11:10:18;102331.19;;;13.96;100.00
72438;BME280;60444;43.534;-5.674;2023-02-20T11:12:48;102317.59;;;13.96;100.00
72438;BME280;60444;43.534;-5.674;2023-02-20T11:15:23;102306.31;;;13.84;100.00
72438;BME280;60444;43.534;-5.674;2023-02-20T11:17:52;102315.06;;;13.92;100.00
72438;BME280;60444;43.534;-5.674;2023-02-20T11:23:06;102319.81;;;14.08;100.00
72438;BME280;60444;43.534;-5.674;2023-02-20T11:25:36;102314.97;;;14.16;100.00
72438;BME280;60444;43.534;-5.674;2023-02-20T11:28:23;102285.53;;;14.04;100.00
72438;BME280;60444;43.534;-5.674;2023-02-20T11:31:00;102311.88;;;14.25;100.00
72438;BME280;60444;43.534;-5.674;2023-02-20T11:33:30;102305.41;;;14.29;100.00
72438;BME280;60444;43.534;-5.674;2023-02-20T11:36:18;102289.91;;;14.31;100.00
72438;BME280;60444;43.534;-5.674;2023-02-20T11:38:48;102287.34;;;14.27;100.00
72438;BME280;60444;43.534;-5.674;2023-02-20T11:41:30;102284.91;;;14.19;100.00
72438;BME280;60444;43.534;-5.674;2023-02-20T11:44:23;102291.94;;;14.25;100.00
72438;BME280;60444;43.534;-5.674;2023-02-20T11:47:23;102293.06;;;14.19;100.00
72438;BME280;60444;43.534;-5.674;2023-02-20T11:49:49;102298.66;;;14.16;100.00
72438;BME280;60444;43.534;-5.674;2023-02-20T11:52:32;102288.06;;;14.09;100.00
72438;BME280;60444;43.534;-5.674;2023-02-20T11:55:31;102291.00;;;14.04;100.00
72438;BME280;60444;43.534;-5.674;2023-02-20T11:57:57;102266.28;;;13.87;100.00
72438;BME280;60444;43.534;-5.674;2023-02-20T12:00:28;102269.81;;;13.89;100.00
72438;BME280;60444;43.534;-5.674;2023-02-20T12:03:10;102273.38;;;13.91;100.00
72438;BME280;60444;43.534;-5.674;2023-02-20T12:05:42;102263.53;;;13.87;100.00
72438;BME280;60444;43.534;-5.674;2023-02-20T12:08:31;102262.63;;;13.88;100.00
72438;BME280;60444;43.534;-5.674;2023-02-20T12:13:38;102260.59;;;13.93;100.00
72438;BME280;60444;43.534;-5.674;2023-02-20T12:24:58;102230.06;;;13.85;100.00
72438;BME280;60444;43.534;-5.674;2023-02-20T12:27:43;102216.63;;;13.82;100.00
72438;BME280;60444;43.534;-5.674;2023-02-20T12:38:59;102229.41;;;14.02;100.00
72438;BME280;60444;43.534;-5.674;2023-02-20T12:41:28;102224.94;;;14.01;100.00
72438;BME280;60444;43.534;-5.674;2023-02-20T13:00:52;102180.06;;;14.11;100.00
72438;BME280;60444;43.534;-5.674;2023-02-20T13:05:49;102165.38;;;14.15;100.00
72438;BME280;60444;43.534;-5.674;2023-02-20T13:08:35;102156.31;;;14.14;100.00
72438;BME280;60444;43.534;-5.674;2023-02-20T13:11:11;102148.16;;;14.14;100.00
72438;BME280;60444;43.534;-5.674;2023-02-20T13:13:41;102124.06;;;14.05;100.00
72438;BME280;60444;43.534;-5.674;2023-02-20T13:21:29;102145.34;;;14.37;100.00
72438;BME280;60444;43.534;-5.674;2023-02-20T13:26:46;102124.06;;;14.27;100.00
72438;BME280;60444;43.534;-5.674;2023-02-20T13:29:15;102136.59;;;14.31;100.00
72438;BME280;60444;43.534;-5.674;2023-02-20T13:31:50;102124.97;;;14.26;100.00
72438;BME280;60444;43.534;-5.674;2023-02-20T13:36:48;102120.25;;;14.31;100.00
72438;BME280;60444;43.534;-5.674;2023-02-20T13:46:58;102095.34;;;14.40;100.00
72438;BME280;60444;43.534;-5.674;2023-02-20T13:49:54;102092.78;;;14.37;100.00
72438;BME280;60444;43.534;-5.674;2023-02-20T13:55:17;102082.75;;;14.37;100.00
72438;BME280;60444;43.534;-5.674;2023-02-20T14:02:50;102092.28;;;14.27;100.00
72438;BME280;60444;43.534;-5.674;2023-02-20T14:05:23;102083.34;;;14.24;100.00
72438;BME280;60444;43.534;-5.674;2023-02-20T14:07:49;102085.31;;;14.20;100.00
72438;BME280;60444;43.534;-5.674;2023-02-20T14:12:43;102083.41;;;14.22;100.00
72438;BME280;60444;43.534;-5.674;2023-02-20T14:15:09;102079.72;;;14.23;100.00
72438;BME280;60444;43.534;-5.674;2023-02-20T14:17:35;102076.78;;;14.29;100.00
72438;BME280;60444;43.534;-5.674;2023-02-20T14:20:05;102075.66;;;14.33;100.00
72438;BME280;60444;43.534;-5.674;2023-02-20T14:22:33;102065.81;;;14.31;100.00
72438;BME280;60444;43.534;-5.674;2023-02-20T14:27:37;102077.31;;;14.37;100.00
72438;BME280;60444;43.534;-5.674;2023-02-20T14:30:12;102074.72;;;14.34;100.00
72438;BME280;60444;43.534;-5.674;2023-02-20T14:32:44;102064.03;;;14.30;100.00
72438;BME280;60444;43.534;-5.674;2023-02-20T14:40:43;102069.63;;;14.27;100.00
72438;BME280;60444;43.534;-5.674;2023-02-20T14:45:47;102055.38;;;14.20;100.00
72438;BME280;60444;43.534;-5.674;2023-02-20T14:48:31;102065.06;;;14.27;100.00
72438;BME280;60444;43.534;-5.674;2023-02-20T14:51:10;102034.53;;;14.19;100.00
72438;BME280;60444;43.534;-5.674;2023-02-20T14:53:37;102056.19;;;14.42;100.00
72438;BME280;60444;43.534;-5.674;2023-02-20T14:56:16;102051.66;;;14.43;100.00
72438;BME280;60444;43.534;-5.674;2023-02-20T14:58:45;102056.91;;;14.47;100.00
72438;BME280;60444;43.534;-5.674;2023-02-20T15:04:14;102035.25;;;14.44;100.00
72438;BME280;60444;43.534;-5.674;2023-02-20T15:06:42;102037.88;;;14.46;100.00